Hauptseite
METAR-TAF:

METAR-TAF

Flughäfen :

Flughafen Örebro

Örebro, Schweden

Breite: 59-14N, Länge: 015-03E, Höhe: 57 m

Beobachtung

Neuester Wetterbericht von vor 44 Minuten, um 08:20 UTC
Wind 7 kt aus Südwest, variierte zwischen Süd und West
Temperatur 17°C
Luftfeuchtigkeit 72%
Luftdruck 1010 hPa
Sichtweite 10 km oder mehr
Aufgelockert bewölkt in der Höhe von 2200 ft, Towering cumulus.

METAR: ESOE 180820Z 22007KT 170V280 9999 SCT022TCU 17/12 Q1010

Zeit: 11:04 (09:04 UTC)

Prognose

Neuester Wetterbericht von vor 34 Minuten, um 08:30 UTC
Gültige Prognose vom 18 um 09 UTC bis 18 um 11 UTC
Wind 9 kt aus West
Sichtweite 10 km oder mehr
Leicht bewölkt in der Höhe von 2000 ft
Zeitweise
vom 18 um 09 UTC bis 18 um 11 UTC
Aufgelockert bewölkt in der Höhe von 3000 ft, Kumulonimbus.

TAF: ESOE 180830Z 1809/1811 26009KT 9999 FEW020 TEMPO 1809/1811 SCT030CB

Wetterbeobachtungen und Prognosen von mehr als 4000 Flughäfen (METAR und TAF Bericht).

Die verfügbaren Stationen werden durch gelbe und rote Markierungen auf der Karte dargestellt.

Führen Sie die Maus auf sie, um den Namen der Station zu sehen.

Darauf klicken, um die Beobachtung von Wetterbeobachtungen und Prognosen zu sehen.

Um die Karte zu ändern : klicken Sie auf den grünen Tasten mit einem schwarzen Kreuz Zum Vergrößern, auf den grünen Button mit einem Gedankenstrich zu verkleinern, oder auf die grünen Pfeile für benachbarte Karten.


METAR-TAF: